Time;durP1;ratioP1;P1;durP2;ratioP2;P2;SDS_P1;SDS_P2;PMS_P1;PMS_P2;Temp;Humidity;BMP_temperature;BMP_pressure;BME280_temperature;BME280_humidity;BME280_pressure;Samples;Min_cycle;Max_cycle;Signal;HPM_P1;HPM_P2
2022/01/15 00:04:42;;;;;;;13.60;5.32;;;0.00;98.30;;;;;;9824865;29;20028;-61
2022/01/15 00:09:33;;;;;;;9.57;4.60;;;0.00;98.10;;;;;;9825232;29;20048;-56
2022/01/15 00:14:37;;;;;;;12.68;4.32;;;-0.10;98.10;;;;;;9824784;29;20027;-59
2022/01/15 00:19:41;;;;;;;11.93;5.50;;;-0.10;98.30;;;;;;9826355;29;20036;-58
2022/01/15 00:24:32;;;;;;;12.60;5.35;;;0.00;98.20;;;;;;9828798;29;20088;-62
2022/01/15 00:29:22;;;;;;;16.45;4.90;;;0.20;98.10;;;;;;9826635;29;20451;-59
2022/01/15 00:34:13;;;;;;;13.32;5.20;;;0.10;98.00;;;;;;9825100;29;20064;-64
2022/01/15 00:39:04;;;;;;;11.27;6.07;;;0.10;98.10;;;;;;9825952;29;20044;-58
2022/01/15 00:43:55;;;;;;;11.85;4.70;;;0.00;98.10;;;;;;9826428;29;20107;-56
2022/01/15 00:48:45;;;;;;;16.17;5.72;;;0.10;98.20;;;;;;9822849;29;20044;-60
2022/01/15 00:53:36;;;;;;;18.08;6.05;;;0.00;98.40;;;;;;9823510;29;20048;-62
2022/01/15 00:58:27;;;;;;;12.20;4.70;;;0.20;98.20;;;;;;9824211;29;20369;-61
2022/01/15 01:03:18;;;;;;;13.23;5.97;;;0.20;98.10;;;;;;9828817;29;20034;-59
2022/01/15 01:08:08;;;;;;;10.48;6.40;;;0.30;98.00;;;;;;9821188;29;20499;-57
2022/01/15 01:22:59;;;;;;;12.52;3.50;;;0.20;98.20;;;;;;9821591;29;20130;-64
2022/01/15 01:27:54;;;;;;;12.38;4.55;;;0.00;98.30;;;;;;9822283;29;20398;-61
2022/01/15 01:37:40;;;;;;;11.80;4.88;;;0.00;98.40;;;;;;9820999;29;20036;-60
2022/01/15 01:42:40;;;;;;;11.80;3.67;;;0.30;98.20;;;;;;9822345;29;20526;-54
2022/01/15 01:47:40;;;;;;;11.00;4.00;;;0.30;98.20;;;;;;9820166;29;20051;-65
2022/01/15 01:52:31;;;;;;;9.35;4.53;;;0.30;98.20;;;;;;9820365;29;20024;-61
2022/01/15 01:57:21;;;;;;;10.40;4.05;;;0.40;98.10;;;;;;9818255;29;20056;-57
2022/01/15 02:02:12;;;;;;;10.32;3.97;;;0.40;98.20;;;;;;9821028;29;20024;-67
2022/01/15 02:07:03;;;;;;;14.88;4.35;;;0.40;98.30;;;;;;9822026;29;20040;-58
2022/01/15 02:11:53;;;;;;;12.52;4.65;;;0.60;98.00;;;;;;9819008;29;20455;-57
2022/01/15 02:16:44;;;;;;;8.65;3.83;;;0.70;97.90;;;;;;9820443;29;20036;-57
2022/01/15 02:26:39;;;;;;;9.45;3.70;;;0.50;98.20;;;;;;9823300;29;20528;-54
2022/01/15 02:31:31;;;;;;;11.93;4.15;;;0.60;98.20;;;;;;9821834;29;20035;-57
2022/01/15 02:36:28;;;;;;;12.55;3.90;;;0.60;98.00;;;;;;9836999;29;20079;-56
2022/01/15 02:41:25;;;;;;;11.52;5.22;;;0.50;98.40;;;;;;9824440;29;20087;-54
2022/01/15 02:46:19;;;;;;;13.23;4.03;;;0.40;98.40;;;;;;9826409;29;20043;-57
2022/01/15 02:51:11;;;;;;;12.65;4.10;;;0.40;98.70;;;;;;9826556;29;20438;-63
2022/01/15 02:56:02;;;;;;;11.82;4.20;;;0.40;98.60;;;;;;9823547;29;20059;-63
2022/01/15 03:00:53;;;;;;;13.10;4.10;;;0.50;98.60;;;;;;9832278;29;20384;-65
2022/01/15 03:05:43;;;;;;;15.20;4.07;;;0.50;98.60;;;;;;9826367;29;20044;-56
2022/01/15 03:10:34;;;;;;;12.73;4.70;;;0.50;98.70;;;;;;9825260;29;20119;-65
2022/01/15 03:15:25;;;;;;;12.82;4.43;;;0.60;98.70;;;;;;9823854;29;20051;-55
2022/01/15 03:20:17;;;;;;;13.68;4.57;;;0.50;98.70;;;;;;9833322;29;20024;-59
2022/01/15 03:25:09;;;;;;;12.35;4.03;;;0.60;98.60;;;;;;9828611;29;20036;-62
2022/01/15 03:30:00;;;;;;;15.60;4.95;;;0.60;98.50;;;;;;9825760;29;20550;-59
2022/01/15 03:34:51;;;;;;;9.82;3.85;;;0.50;98.60;;;;;;9829624;29;20032;-57
2022/01/15 03:39:42;;;;;;;16.67;5.57;;;0.50;98.60;;;;;;9825000;29;20032;-56
2022/01/15 03:44:33;;;;;;;8.45;4.43;;;0.50;98.30;;;;;;9826988;29;20028;-64
2022/01/15 03:49:23;;;;;;;11.13;4.25;;;0.50;98.70;;;;;;9828804;29;20590;-67
2022/01/15 03:54:14;;;;;;;9.73;3.53;;;0.40;98.90;;;;;;9823399;29;20499;-58
2022/01/15 03:59:04;;;;;;;15.38;4.43;;;0.40;98.90;;;;;;9827337;29;20048;-67
2022/01/15 04:03:55;;;;;;;10.75;4.18;;;0.40;99.00;;;;;;9826638;29;20040;-70
2022/01/15 04:08:46;;;;;;;11.80;4.35;;;0.50;98.70;;;;;;9820583;29;20044;-70
2022/01/15 04:13:36;;;;;;;10.60;3.63;;;0.50;98.80;;;;;;9822886;29;20125;-65
2022/01/15 04:18:35;;;;;;;11.20;3.90;;;0.50;98.80;;;;;;9822324;29;20145;-59
2022/01/15 04:23:26;;;;;;;12.48;5.13;;;0.40;98.90;;;;;;9827458;29;20042;-58
2022/01/15 04:28:17;;;;;;;9.50;3.80;;;0.40;98.70;;;;;;9824472;29;20048;-61
2022/01/15 04:33:07;;;;;;;8.35;4.40;;;0.40;98.70;;;;;;9824077;29;20032;-60
2022/01/15 04:38:05;;;;;;;9.38;3.75;;;0.50;98.70;;;;;;9817714;29;20020;-61
2022/01/15 04:42:56;;;;;;;14.10;4.47;;;0.50;98.70;;;;;;9821542;29;20583;-66
2022/01/15 04:47:46;;;;;;;9.07;3.63;;;0.40;98.80;;;;;;9825310;29;20051;-54
2022/01/15 04:52:38;;;;;;;14.07;3.67;;;0.40;98.80;;;;;;9822647;29;20024;-58
2022/01/15 04:57:29;;;;;;;10.45;3.78;;;0.50;98.70;;;;;;9820828;29;20522;-54
2022/01/15 05:02:20;;;;;;;11.73;4.07;;;0.40;98.60;;;;;;9821644;29;20028;-57
2022/01/15 05:07:11;;;;;;;12.60;4.30;;;0.50;98.50;;;;;;9827541;29;20044;-62
2022/01/15 05:12:08;;;;;;;9.68;4.25;;;0.50;98.60;;;;;;9821799;29;20598;-65
2022/01/15 05:16:59;;;;;;;8.77;3.30;;;0.60;98.50;;;;;;9820164;29;20036;-58
2022/01/15 05:21:54;;;;;;;10.60;4.35;;;0.50;98.60;;;;;;9819899;29;20486;-59
2022/01/15 05:26:45;;;;;;;9.82;4.90;;;0.70;98.50;;;;;;9821507;29;20044;-66
2022/01/15 05:31:36;;;;;;;14.30;4.18;;;0.80;98.40;;;;;;9822894;29;20036;-59
2022/01/15 05:36:26;;;;;;;9.68;4.57;;;0.80;98.40;;;;;;9820900;29;20038;-53
2022/01/15 05:41:17;;;;;;;11.50;4.05;;;0.80;98.40;;;;;;9821213;29;20028;-55
2022/01/15 05:46:08;;;;;;;9.80;3.90;;;0.80;98.40;;;;;;9822526;29;20035;-60
2022/01/15 05:50:58;;;;;;;10.00;3.67;;;0.80;98.30;;;;;;9820283;29;20043;-65
2022/01/15 05:55:49;;;;;;;11.73;4.55;;;0.80;98.30;;;;;;9823379;29;20151;-64
2022/01/15 06:00:40;;;;;;;8.02;4.22;;;0.80;98.30;;;;;;9822082;29;20032;-55
2022/01/15 06:05:30;;;;;;;10.95;5.38;;;0.80;98.40;;;;;;9828728;29;20024;-56
2022/01/15 06:10:21;;;;;;;12.48;4.47;;;0.80;98.30;;;;;;9821915;29;20031;-57
2022/01/15 06:15:15;;;;;;;14.68;4.90;;;0.80;98.30;;;;;;9820036;29;20036;-58
2022/01/15 06:20:06;;;;;;;13.13;4.63;;;0.70;98.50;;;;;;9821438;29;20483;-56
2022/01/15 06:24:57;;;;;;;11.02;4.18;;;0.80;98.40;;;;;;9825035;29;20655;-57
2022/01/15 06:29:48;;;;;;;12.15;4.95;;;0.70;98.40;;;;;;9826811;29;20332;-55
2022/01/15 06:34:39;;;;;;;12.23;3.95;;;0.80;98.50;;;;;;9820332;29;20028;-67
2022/01/15 06:39:29;;;;;;;11.80;4.57;;;0.80;98.40;;;;;;9822532;29;20487;-57
2022/01/15 06:44:20;;;;;;;13.27;5.35;;;0.80;98.40;;;;;;9819284;29;20111;-53
2022/01/15 06:49:11;;;;;;;11.25;4.90;;;0.80;98.30;;;;;;9818909;29;20430;-62
2022/01/15 06:54:01;;;;;;;9.77;3.95;;;0.90;98.30;;;;;;9828052;29;20071;-55
2022/01/15 06:58:53;;;;;;;15.75;4.38;;;0.70;98.30;;;;;;9821929;29;20048;-55
2022/01/15 07:03:43;;;;;;;10.15;4.43;;;0.60;98.50;;;;;;9826431;29;20564;-54
2022/01/15 07:08:34;;;;;;;15.20;5.03;;;0.50;98.70;;;;;;9819878;29;20044;-53
2022/01/15 07:13:26;;;;;;;12.48;5.05;;;0.40;98.50;;;;;;9818437;29;20674;-57
2022/01/15 07:18:17;;;;;;;14.23;4.20;;;0.60;98.60;;;;;;9817767;29;20048;-54
2022/01/15 07:23:08;;;;;;;12.32;5.38;;;0.40;98.60;;;;;;9831039;29;20557;-55
2022/01/15 07:27:58;;;;;;;11.75;6.38;;;0.40;98.70;;;;;;9830808;29;20127;-58
2022/01/15 07:32:50;;;;;;;10.85;4.72;;;0.50;98.60;;;;;;9824324;29;20032;-58
2022/01/15 07:37:41;;;;;;;16.27;5.18;;;0.60;98.50;;;;;;9825387;29;20039;-57
2022/01/15 07:42:39;;;;;;;17.40;5.80;;;0.60;98.50;;;;;;9827125;29;20028;-55
2022/01/15 07:47:30;;;;;;;16.67;5.72;;;0.70;98.40;;;;;;9815074;29;20135;-57
2022/01/15 07:52:20;;;;;;;21.15;6.82;;;0.70;98.50;;;;;;9823980;29;20095;-57
2022/01/15 07:57:11;;;;;;;18.42;5.75;;;0.70;98.50;;;;;;9822572;29;20060;-57
2022/01/15 08:02:03;;;;;;;16.70;6.30;;;0.80;98.50;;;;;;9826816;29;20103;-56
2022/01/15 08:06:53;;;;;;;17.80;5.75;;;0.80;98.50;;;;;;9822380;29;20036;-60
2022/01/15 08:11:44;;;;;;;21.25;7.20;;;0.70;98.40;;;;;;9820700;29;20395;-56
2022/01/15 08:16:35;;;;;;;14.18;5.00;;;0.80;98.50;;;;;;9825164;29;20095;-55
2022/01/15 08:21:25;;;;;;;13.05;5.20;;;0.90;98.30;;;;;;9826310;29;20119;-61
2022/01/15 08:26:16;;;;;;;15.88;5.68;;;0.70;98.60;;;;;;9828078;29;20039;-58
2022/01/15 08:31:07;;;;;;;17.17;6.20;;;0.80;98.50;;;;;;9821947;29;20443;-54
2022/01/15 08:35:58;;;;;;;15.25;5.78;;;0.80;98.50;;;;;;9827673;29;20155;-61
2022/01/15 08:40:49;;;;;;;17.98;6.03;;;0.90;98.30;;;;;;9820792;29;20091;-61
2022/01/15 08:45:40;;;;;;;18.38;6.47;;;0.90;98.40;;;;;;9824651;29;20395;-60
2022/01/15 08:50:31;;;;;;;17.90;6.53;;;0.90;98.50;;;;;;9823566;29;20024;-68
2022/01/15 08:55:28;;;;;;;19.40;6.47;;;0.90;98.50;;;;;;9822969;29;20067;-58
2022/01/15 09:00:19;;;;;;;14.80;5.90;;;0.90;98.50;;;;;;9821126;29;20180;-60
2022/01/15 09:05:11;;;;;;;12.57;5.63;;;1.00;98.50;;;;;;9826733;29;20107;-58
2022/01/15 09:10:02;;;;;;;11.80;6.00;;;1.00;98.50;;;;;;9823104;29;20043;-56
2022/01/15 09:14:58;;;;;;;18.45;6.78;;;1.00;98.40;;;;;;9820210;29;20066;-56
2022/01/15 09:19:49;;;;;;;14.07;7.50;;;1.10;98.50;;;;;;9822051;29;20044;-59
2022/01/15 09:24:39;;;;;;;15.63;6.45;;;0.80;98.30;;;;;;9825956;29;20052;-60
2022/01/15 09:35:01;;;;;;;16.80;7.00;;;0.80;98.60;;;;;;9735223;29;20064;-59
2022/01/15 09:39:52;;;;;;;13.93;5.82;;;0.70;98.80;;;;;;9796862;29;20043;-56
2022/01/15 09:44:45;;;;;;;21.88;7.53;;;0.80;98.70;;;;;;9820823;29;20046;-56
2022/01/15 09:49:37;;;;;;;18.00;6.32;;;0.90;98.70;;;;;;9820366;29;20132;-57
2022/01/15 09:54:28;;;;;;;14.95;7.03;;;0.70;98.50;;;;;;9820333;29;20036;-62
2022/01/15 09:59:20;;;;;;;19.20;6.93;;;0.70;98.60;;;;;;9819907;29;20439;-66
2022/01/15 10:04:11;;;;;;;15.70;6.03;;;0.70;98.80;;;;;;9820382;29;20020;-55
2022/01/15 10:09:05;;;;;;;17.98;5.50;;;0.70;98.60;;;;;;9819150;29;20056;-52
2022/01/15 10:13:56;;;;;;;17.33;6.82;;;0.60;98.90;;;;;;9820441;29;20032;-55
2022/01/15 10:18:47;;;;;;;18.50;8.32;;;0.60;98.70;;;;;;9820446;29;20043;-64
2022/01/15 10:23:54;;;;;;;18.65;7.28;;;0.80;98.60;;;;;;9819598;29;20368;-56
2022/01/15 10:28:58;;;;;;;16.98;5.93;;;0.90;98.60;;;;;;9821870;29;20100;-55
2022/01/15 10:33:50;;;;;;;13.93;6.05;;;0.90;98.40;;;;;;9820446;29;20574;-70
2022/01/15 10:38:41;;;;;;;19.92;7.10;;;1.00;98.50;;;;;;9819622;29;20038;-57
2022/01/15 10:43:35;;;;;;;18.02;6.97;;;0.90;98.20;;;;;;9819329;29;20020;-54
2022/01/15 10:48:37;;;;;;;14.98;5.85;;;0.90;98.20;;;;;;9822341;29;20198;-56
2022/01/15 10:53:38;;;;;;;20.48;7.32;;;0.90;98.40;;;;;;9819360;29;20331;-55
2022/01/15 10:58:29;;;;;;;18.45;6.55;;;1.00;98.40;;;;;;9817532;29;20126;-55
2022/01/15 11:03:20;;;;;;;16.92;7.30;;;1.10;98.10;;;;;;9831331;29;20533;-64
2022/01/15 11:08:25;;;;;;;21.23;8.40;;;1.00;98.10;;;;;;9827332;29;20036;-55
2022/01/15 11:13:25;;;;;;;17.40;6.90;;;1.00;98.20;;;;;;9830608;29;20464;-59
2022/01/15 11:18:21;;;;;;;15.73;6.28;;;0.90;98.00;;;;;;9827969;29;20032;-55
2022/01/15 11:23:13;;;;;;;17.73;8.13;;;0.80;98.30;;;;;;9826679;29;20024;-58
2022/01/15 11:28:07;;;;;;;16.88;7.70;;;0.70;98.20;;;;;;9827206;29;20048;-62
2022/01/15 11:32:58;;;;;;;18.05;7.40;;;0.70;98.30;;;;;;9831582;29;20206;-60
2022/01/15 11:37:54;;;;;;;19.58;7.30;;;1.20;98.20;;;;;;9819186;29;20276;-59
2022/01/15 11:42:45;;;;;;;18.20;7.22;;;1.30;97.70;;;;;;9823704;29;20036;-64
2022/01/15 11:47:36;;;;;;;17.77;8.10;;;1.30;97.80;;;;;;9823916;29;20036;-64
2022/01/15 11:52:26;;;;;;;21.73;9.23;;;1.40;97.90;;;;;;9824420;29;20542;-62
2022/01/15 11:57:24;;;;;;;19.02;6.95;;;1.30;97.90;;;;;;9824477;29;20122;-57
2022/01/15 12:02:35;;;;;;;16.88;6.95;;;1.20;97.80;;;;;;9823045;29;20075;-58
2022/01/15 12:07:26;;;;;;;18.13;7.43;;;1.10;98.20;;;;;;9824242;29;20607;-59
2022/01/15 12:12:31;;;;;;;18.58;6.85;;;0.90;98.20;;;;;;9822589;29;20025;-58
2022/01/15 12:17:36;;;;;;;21.90;7.30;;;1.00;98.30;;;;;;9826144;29;20032;-57
2022/01/15 12:22:45;;;;;;;23.50;8.35;;;1.00;98.30;;;;;;9828346;29;20036;-56
2022/01/15 12:27:36;;;;;;;15.63;6.95;;;1.20;98.20;;;;;;9823018;29;20403;-55
2022/01/15 12:32:28;;;;;;;17.20;7.95;;;1.20;98.10;;;;;;9823088;29;20060;-53
2022/01/15 12:37:19;;;;;;;18.52;7.25;;;1.30;98.00;;;;;;9824165;29;20024;-56
2022/01/15 12:42:12;;;;;;;16.17;6.78;;;1.30;98.00;;;;;;9821885;29;20083;-54
2022/01/15 12:47:02;;;;;;;18.25;7.78;;;1.10;98.00;;;;;;9821855;29;20036;-53
2022/01/15 12:52:11;;;;;;;18.20;7.50;;;1.10;98.20;;;;;;9823386;29;20157;-54
2022/01/15 12:57:02;;;;;;;18.80;7.50;;;1.10;98.20;;;;;;9826391;29;20068;-55
2022/01/15 13:01:53;;;;;;;19.67;7.28;;;1.30;98.00;;;;;;9825716;29;20037;-57
2022/01/15 13:06:49;;;;;;;22.27;9.00;;;1.30;97.90;;;;;;9827455;29;20088;-55
2022/01/15 13:11:48;;;;;;;20.85;7.70;;;1.40;97.90;;;;;;9825478;29;20131;-59
2022/01/15 13:16:38;;;;;;;25.05;8.18;;;1.40;97.90;;;;;;9820994;29;20099;-55
2022/01/15 13:21:33;;;;;;;22.08;7.10;;;1.40;98.00;;;;;;9821303;29;20388;-57
2022/01/15 13:26:26;;;;;;;20.20;8.13;;;1.30;98.00;;;;;;9820382;29;20036;-66
2022/01/15 13:31:17;;;;;;;20.52;8.02;;;1.40;98.00;;;;;;9823075;29;20024;-60
2022/01/15 13:36:14;;;;;;;20.27;8.95;;;1.30;97.90;;;;;;9817617;29;20028;-63
2022/01/15 13:41:25;;;;;;;26.83;10.00;;;1.40;98.00;;;;;;9820457;29;20036;-58
2022/01/15 13:46:19;;;;;;;21.05;7.10;;;1.50;97.80;;;;;;9822225;29;20031;-64
2022/01/15 13:56:22;;;;;;;23.35;8.10;;;1.40;97.90;;;;;;9819373;29;20115;-64
2022/01/15 14:01:21;;;;;;;21.73;8.23;;;1.30;97.90;;;;;;9820267;29;20536;-56
2022/01/15 14:06:12;;;;;;;20.40;7.40;;;1.40;98.10;;;;;;9824623;29;20512;-53
2022/01/15 14:11:09;;;;;;;20.00;6.57;;;1.40;98.00;;;;;;9823024;29;20058;-59
2022/01/15 14:16:00;;;;;;;17.63;7.22;;;1.40;97.80;;;;;;9823834;29;20178;-62
2022/01/15 14:25:47;;;;;;;14.85;6.68;;;1.40;97.80;;;;;;9819162;29;20090;-65
2022/01/15 14:30:42;;;;;;;15.00;6.53;;;1.20;98.10;;;;;;9820100;29;20039;-59
2022/01/15 14:35:33;;;;;;;14.38;6.40;;;1.30;98.10;;;;;;9830020;29;20035;-59
2022/01/15 14:40:24;;;;;;;18.55;7.07;;;1.20;98.30;;;;;;9825843;29;20032;-56
2022/01/15 14:45:17;;;;;;;18.17;7.07;;;1.30;98.10;;;;;;9826624;29;20387;-63
2022/01/15 14:50:08;;;;;;;18.48;7.50;;;1.40;98.00;;;;;;9827971;29;20422;-58
2022/01/15 14:54:59;;;;;;;18.25;7.60;;;1.40;97.70;;;;;;9823404;29;20335;-58
2022/01/15 14:59:49;;;;;;;21.50;7.60;;;1.50;97.80;;;;;;9831790;29;20032;-57
2022/01/15 15:04:40;;;;;;;17.90;6.93;;;1.50;97.80;;;;;;9827095;29;20047;-57
2022/01/15 15:09:31;;;;;;;19.75;7.07;;;1.50;97.70;;;;;;9826233;29;20028;-59
2022/01/15 15:14:21;;;;;;;25.70;8.43;;;1.40;97.80;;;;;;9824767;29;20036;-60
2022/01/15 15:19:13;;;;;;;22.00;8.43;;;1.50;97.80;;;;;;9824769;29;20051;-56
2022/01/15 15:24:04;;;;;;;16.15;6.75;;;1.60;97.70;;;;;;9823816;29;20043;-61
2022/01/15 15:28:55;;;;;;;19.63;7.03;;;1.40;97.90;;;;;;9826101;29;20055;-57
2022/01/15 15:33:47;;;;;;;17.10;7.88;;;1.50;98.00;;;;;;9826848;29;20094;-64
2022/01/15 15:38:41;;;;;;;17.83;7.00;;;1.60;97.80;;;;;;9825897;29;20111;-56
2022/01/15 15:43:32;;;;;;;19.38;7.25;;;1.60;97.70;;;;;;9827316;29;20028;-60
2022/01/15 15:48:22;;;;;;;20.05;7.47;;;1.50;97.80;;;;;;9832851;29;20102;-55
2022/01/15 15:53:13;;;;;;;17.30;6.95;;;1.60;97.70;;;;;;9825701;29;20528;-57
2022/01/15 15:58:04;;;;;;;18.77;8.07;;;1.50;97.80;;;;;;9823790;29;20060;-57
2022/01/15 16:02:55;;;;;;;23.38;8.25;;;1.60;97.70;;;;;;9833694;29;20027;-55
2022/01/15 16:07:46;;;;;;;20.02;7.93;;;1.60;97.90;;;;;;9828050;29;20052;-62
2022/01/15 16:12:37;;;;;;;26.65;7.80;;;1.60;97.70;;;;;;9825962;29;20032;-62
2022/01/15 16:17:28;;;;;;;27.60;9.02;;;1.60;97.70;;;;;;9827445;29;20028;-62
2022/01/15 16:22:19;;;;;;;20.27;8.23;;;1.60;97.80;;;;;;9834727;29;20028;-66
2022/01/15 16:27:10;;;;;;;28.15;7.68;;;1.50;97.80;;;;;;9832359;29;20572;-69
2022/01/15 16:32:02;;;;;;;20.85;7.85;;;1.50;97.90;;;;;;9840157;29;20038;-65
2022/01/15 16:36:54;;;;;;;24.02;8.30;;;1.60;97.70;;;;;;9836524;29;20020;-68
2022/01/15 16:41:45;;;;;;;20.88;7.55;;;1.70;97.70;;;;;;9831209;29;20043;-60
2022/01/15 16:46:36;;;;;;;21.50;7.78;;;1.60;97.70;;;;;;9826936;29;20040;-62
2022/01/15 16:51:27;;;;;;;21.00;7.78;;;1.70;97.80;;;;;;9823408;29;20039;-58
2022/01/15 16:56:17;;;;;;;19.33;10.32;;;1.60;97.70;;;;;;9827190;29;20041;-55
2022/01/15 17:01:08;;;;;;;27.50;8.95;;;1.40;97.70;;;;;;9824607;29;20471;-57
2022/01/15 17:06:00;;;;;;;16.73;6.78;;;1.50;97.80;;;;;;9827021;29;20028;-57
2022/01/15 17:10:50;;;;;;;17.65;7.60;;;1.50;97.90;;;;;;9824543;29;20028;-55
2022/01/15 17:15:41;;;;;;;18.15;7.45;;;1.40;97.90;;;;;;9828358;29;20670;-59
2022/01/15 17:20:32;;;;;;;18.48;7.40;;;1.50;98.00;;;;;;9817925;29;20024;-60
2022/01/15 17:25:22;;;;;;;18.80;7.20;;;1.60;97.90;;;;;;9821123;29;20407;-59
2022/01/15 17:30:14;;;;;;;16.65;7.20;;;1.60;97.70;;;;;;9822209;29;20032;-58
2022/01/15 17:35:07;;;;;;;17.20;7.22;;;1.70;97.80;;;;;;9826739;29;20055;-61
2022/01/15 17:39:58;;;;;;;21.88;7.45;;;1.70;97.70;;;;;;9820846;29;20527;-55
2022/01/15 17:44:49;;;;;;;26.13;7.90;;;1.80;97.70;;;;;;9821040;29;20024;-57
2022/01/15 17:49:39;;;;;;;24.02;7.45;;;1.80;97.60;;;;;;9816881;29;20040;-58
2022/01/15 17:54:30;;;;;;;19.73;7.18;;;1.60;97.70;;;;;;9823666;29;20471;-53
2022/01/15 17:59:21;;;;;;;21.65;7.32;;;1.60;97.70;;;;;;9828060;29;20051;-62
2022/01/15 18:04:18;;;;;;;18.17;7.95;;;1.60;97.80;;;;;;9826540;29;20471;-55
2022/01/15 18:09:08;;;;;;;17.38;6.45;;;1.50;97.60;;;;;;9823647;29;20036;-58
2022/01/15 18:14:00;;;;;;;17.30;7.07;;;1.60;97.60;;;;;;9817240;29;20091;-65
2022/01/15 18:18:51;;;;;;;18.08;6.72;;;1.60;97.70;;;;;;9824065;29;20035;-58
2022/01/15 18:23:41;;;;;;;20.10;6.57;;;1.60;97.70;;;;;;9821560;29;20032;-55
2022/01/15 18:28:33;;;;;;;17.98;6.65;;;1.60;97.80;;;;;;9817275;29;20040;-62
2022/01/15 18:33:26;;;;;;;18.08;8.00;;;1.60;97.70;;;;;;9818561;29;20028;-61
2022/01/15 18:38:17;;;;;;;23.67;8.10;;;1.60;97.50;;;;;;9818076;29;20044;-64
2022/01/15 18:43:08;;;;;;;17.92;7.97;;;1.60;97.80;;;;;;9824484;29;20418;-58
2022/01/15 18:47:59;;;;;;;24.83;7.63;;;1.60;97.80;;;;;;9819100;29;20662;-61
2022/01/15 18:52:51;;;;;;;21.08;8.10;;;1.70;97.80;;;;;;9821666;29;20060;-59
2022/01/15 18:57:41;;;;;;;20.20;7.43;;;1.60;97.60;;;;;;9823973;29;20439;-59
2022/01/15 19:02:32;;;;;;;23.58;9.40;;;1.70;97.70;;;;;;9827626;29;20031;-57
2022/01/15 19:07:24;;;;;;;20.65;6.78;;;1.60;97.60;;;;;;9826798;29;20036;-67
2022/01/15 19:12:15;;;;;;;22.25;7.72;;;1.40;97.70;;;;;;9818647;29;20458;-62
2022/01/15 19:17:05;;;;;;;21.10;8.48;;;1.50;97.70;;;;;;9819673;29;20032;-60
2022/01/15 19:21:59;;;;;;;21.17;8.07;;;1.60;97.70;;;;;;9827402;29;20029;-64
2022/01/15 19:26:49;;;;;;;19.77;7.57;;;1.50;97.80;;;;;;9820565;29;20642;-62
2022/01/15 19:31:42;;;;;;;19.90;7.97;;;1.60;97.70;;;;;;9830714;29;20129;-66
2022/01/15 19:36:32;;;;;;;22.23;7.47;;;1.60;97.70;;;;;;9821472;29;20028;-57
2022/01/15 19:41:23;;;;;;;24.58;7.28;;;1.60;97.70;;;;;;9827725;29;20024;-60
2022/01/15 19:46:15;;;;;;;22.77;7.45;;;1.40;97.60;;;;;;9823041;29;20337;-56
2022/01/15 19:51:06;;;;;;;21.35;9.38;;;1.30;98.00;;;;;;9828577;29;20040;-55
2022/01/15 19:55:56;;;;;;;13.82;6.75;;;1.30;97.70;;;;;;9825466;29;20052;-57
2022/01/15 20:00:48;;;;;;;16.63;7.15;;;1.30;97.80;;;;;;9823922;29;20561;-55
2022/01/15 20:05:38;;;;;;;15.40;6.15;;;1.20;97.80;;;;;;9833335;29;20028;-55
2022/01/15 20:10:31;;;;;;;19.70;6.55;;;1.10;97.80;;;;;;9823525;29;20044;-58
2022/01/15 20:15:22;;;;;;;18.20;6.68;;;1.10;98.00;;;;;;9829135;29;20028;-55
2022/01/15 20:20:13;;;;;;;17.67;5.93;;;1.30;97.80;;;;;;9826890;29;20059;-60
2022/01/15 20:25:09;;;;;;;18.30;6.57;;;1.20;97.90;;;;;;9829219;29;20533;-57
2022/01/15 20:30:00;;;;;;;20.90;7.40;;;1.30;97.70;;;;;;9826664;29;20055;-58
2022/01/15 20:34:51;;;;;;;19.65;8.48;;;1.30;97.80;;;;;;9824108;29;20036;-57
2022/01/15 20:39:41;;;;;;;30.88;10.27;;;1.10;97.80;;;;;;9823999;29;20040;-64
2022/01/15 20:44:35;;;;;;;24.08;7.43;;;0.80;97.90;;;;;;9822380;29;20031;-56
2022/01/15 20:49:26;;;;;;;14.38;6.18;;;0.90;98.20;;;;;;9821626;29;20160;-71
2022/01/15 20:54:18;;;;;;;12.82;5.25;;;0.90;98.00;;;;;;9822534;29;20077;-57
2022/01/15 20:59:09;;;;;;;16.58;5.68;;;1.10;97.90;;;;;;9821706;29;20079;-62
2022/01/15 21:03:59;;;;;;;18.33;6.53;;;0.90;97.90;;;;;;9830233;29;20048;-57
2022/01/15 21:08:50;;;;;;;18.52;6.90;;;0.90;98.00;;;;;;9821465;29;20460;-55
2022/01/15 21:13:41;;;;;;;15.95;5.65;;;0.90;97.80;;;;;;9823219;29;20331;-55
2022/01/15 21:18:32;;;;;;;17.48;6.93;;;1.00;97.90;;;;;;9826707;29;20526;-57
2022/01/15 21:23:23;;;;;;;16.95;6.10;;;0.80;97.70;;;;;;9826314;29;20035;-62
2022/01/15 21:28:14;;;;;;;16.75;5.15;;;0.90;97.90;;;;;;9823751;29;20455;-58
2022/01/15 21:33:07;;;;;;;16.40;5.63;;;1.00;98.00;;;;;;9822341;29;20136;-61
2022/01/15 21:37:57;;;;;;;15.25;5.50;;;1.10;97.70;;;;;;9821466;29;20127;-56
2022/01/15 21:42:49;;;;;;;18.08;4.65;;;1.00;97.70;;;;;;9820449;29;20119;-58
2022/01/15 21:47:41;;;;;;;16.50;4.80;;;1.00;97.90;;;;;;9823489;29;20096;-58
2022/01/15 21:52:32;;;;;;;13.20;5.70;;;1.00;97.90;;;;;;9826365;29;20111;-58
2022/01/15 21:57:23;;;;;;;15.07;5.95;;;1.10;97.80;;;;;;9824495;29;20131;-60
2022/01/15 22:02:13;;;;;;;15.57;6.75;;;0.90;97.90;;;;;;9829305;29;20044;-60
2022/01/15 22:07:06;;;;;;;16.67;6.47;;;0.90;98.10;;;;;;9820590;29;20535;-64
2022/01/15 22:11:58;;;;;;;21.67;6.18;;;1.00;98.10;;;;;;9823843;29;20050;-68
2022/01/15 22:16:49;;;;;;;12.18;5.38;;;0.90;97.90;;;;;;9819760;29;20490;-61
2022/01/15 22:21:40;;;;;;;15.45;5.68;;;0.90;98.10;;;;;;9826816;29;20052;-63
2022/01/15 22:26:31;;;;;;;14.63;5.30;;;0.90;98.00;;;;;;9819847;29;20084;-56
2022/01/15 22:31:21;;;;;;;12.00;5.13;;;0.80;97.90;;;;;;9824742;29;20127;-63
2022/01/15 22:36:12;;;;;;;15.57;5.25;;;0.90;97.90;;;;;;9817012;29;20105;-68
2022/01/15 22:41:04;;;;;;;16.40;5.03;;;0.80;97.70;;;;;;9821827;29;20037;-60
2022/01/15 22:45:57;;;;;;;15.73;4.78;;;0.70;97.90;;;;;;9819906;29;20066;-60
2022/01/15 22:50:52;;;;;;;10.68;4.63;;;0.80;98.10;;;;;;9822207;29;20468;-62
2022/01/15 22:55:44;;;;;;;12.87;4.97;;;0.60;97.80;;;;;;9832083;29;20075;-58
2022/01/15 23:00:45;;;;;;;16.73;5.43;;;0.70;98.00;;;;;;9826028;29;20036;-59
2022/01/15 23:05:40;;;;;;;14.07;4.57;;;0.80;97.70;;;;;;9825376;29;20020;-60
2022/01/15 23:10:32;;;;;;;11.17;4.37;;;0.80;97.80;;;;;;9826113;29;20062;-60
2022/01/15 23:20:17;;;;;;;17.77;5.70;;;0.20;98.00;;;;;;9828223;29;20544;-59
2022/01/15 23:25:08;;;;;;;15.30;5.18;;;0.20;98.20;;;;;;9824726;29;20091;-56
2022/01/15 23:29:58;;;;;;;14.65;5.53;;;0.50;98.10;;;;;;9829020;29;20108;-59
2022/01/15 23:34:49;;;;;;;13.23;5.15;;;0.70;98.00;;;;;;9824976;29;20031;-59
2022/01/15 23:39:40;;;;;;;13.85;5.30;;;0.50;97.70;;;;;;9823328;29;20048;-57
2022/01/15 23:44:31;;;;;;;12.88;3.88;;;0.30;97.90;;;;;;9825592;29;20028;-60
2022/01/15 23:49:25;;;;;;;17.77;6.57;;;0.40;98.00;;;;;;9824130;29;20074;-56
2022/01/15 23:54:17;;;;;;;12.73;5.78;;;0.30;98.10;;;;;;9828735;29;20057;-56
2022/01/15 23:59:09;;;;;;;11.77;4.25;;;0.60;97.80;;;;;;9823533;29;20056;-63
